Time;durP1;ratioP1;P1;durP2;ratioP2;P2;SDS_P1;SDS_P2;PMS_P1;PMS_P2;Temp;Humidity;BMP_temperature;BMP_pressure;BME280_temperature;BME280_humidity;BME280_pressure;Samples;Min_cycle;Max_cycle;Signal;HPM_P1;HPM_P2
2021/10/25 00:00:44;;;;;;;17.67;15.50;;;7.30;79.70;;;;;;5039092;27;89586;-90
2021/10/25 00:03:11;;;;;;;22.33;16.13;;;7.30;79.80;;;;;;5005861;28;89493;-89
2021/10/25 00:05:39;;;;;;;16.48;13.35;;;7.20;80.20;;;;;;5021374;28;89096;-90
2021/10/25 00:08:06;;;;;;;21.58;16.45;;;7.20;80.20;;;;;;5038104;28;89963;-90
2021/10/25 00:10:37;;;;;;;18.38;13.02;;;7.20;80.20;;;;;;5022221;28;91831;-90
2021/10/25 00:13:04;;;;;;;16.38;13.40;;;7.20;80.50;;;;;;5022249;28;88865;-89
2021/10/25 00:15:31;;;;;;;19.83;14.77;;;7.20;80.80;;;;;;4998471;28;108660;-90
2021/10/25 00:17:59;;;;;;;17.45;13.75;;;7.20;80.70;;;;;;5019776;28;89103;-89
2021/10/25 00:20:26;;;;;;;17.38;12.73;;;7.20;80.70;;;;;;5034900;28;92485;-89
2021/10/25 00:22:53;;;;;;;15.57;12.20;;;7.20;80.90;;;;;;5035067;28;89395;-89
2021/10/25 00:25:20;;;;;;;14.90;12.75;;;7.20;80.80;;;;;;5035140;28;88684;-90
2021/10/25 00:27:48;;;;;;;16.92;13.55;;;7.20;80.50;;;;;;5043390;27;92005;-90
2021/10/25 00:30:15;;;;;;;15.70;12.85;;;7.10;80.40;;;;;;5038532;28;89387;-89
2021/10/25 00:32:43;;;;;;;18.08;13.80;;;7.10;80.50;;;;;;5028450;27;91257;-89
2021/10/25 00:35:57;;;;;;;20.83;13.82;;;7.10;80.50;;;;;;5021676;28;88771;-89
2021/10/25 00:38:24;;;;;;;16.42;14.15;;;7.10;80.50;;;;;;5038830;28;89129;-90
2021/10/25 00:40:51;;;;;;;17.90;16.05;;;7.10;80.50;;;;;;5004966;28;91802;-90
2021/10/25 00:43:18;;;;;;;18.67;14.98;;;7.10;80.70;;;;;;5038511;27;91449;-89
2021/10/25 00:54:53;;;;;;;15.70;12.80;;;7.00;81.40;;;;;;4766421;22;97211;-89
2021/10/25 00:57:21;;;;;;;18.17;13.70;;;6.90;81.50;;;;;;4928032;28;91877;-89
2021/10/25 00:59:48;;;;;;;18.52;12.82;;;6.90;81.40;;;;;;4951221;28;90695;-89
2021/10/25 01:02:15;;;;;;;20.90;13.65;;;6.90;81.80;;;;;;4921843;28;92612;-89
2021/10/25 01:04:45;;;;;;;19.63;13.85;;;6.90;81.80;;;;;;4957515;28;89656;-89
2021/10/25 01:07:12;;;;;;;20.33;12.73;;;6.80;81.90;;;;;;4924499;28;91517;-89
2021/10/25 01:09:41;;;;;;;17.67;13.48;;;6.80;81.60;;;;;;4926005;28;88387;-89
2021/10/25 01:12:09;;;;;;;20.70;13.77;;;6.80;81.70;;;;;;4957778;28;89173;-89
2021/10/25 01:14:36;;;;;;;18.67;13.85;;;6.80;81.60;;;;;;4938166;28;92473;-89
2021/10/25 01:17:03;;;;;;;15.88;13.32;;;6.80;81.90;;;;;;4922446;28;91505;-89
2021/10/25 01:19:31;;;;;;;18.73;12.90;;;6.80;81.60;;;;;;4932545;28;88503;-89
2021/10/25 01:22:02;;;;;;;17.00;13.10;;;6.80;81.90;;;;;;4926436;28;91405;-89
2021/10/25 01:25:03;;;;;;;17.52;13.57;;;6.70;81.70;;;;;;4941424;28;91907;-89
2021/10/25 01:27:32;;;;;;;16.27;12.90;;;6.80;81.70;;;;;;4957830;28;89079;-89
2021/10/25 01:29:59;;;;;;;17.15;14.50;;;6.70;81.70;;;;;;4941178;28;90796;-89
2021/10/25 01:32:26;;;;;;;18.25;14.48;;;6.70;81.60;;;;;;4925526;28;91452;-89
2021/10/25 01:34:53;;;;;;;18.52;13.70;;;6.70;81.50;;;;;;4925164;28;92449;-89
2021/10/25 01:37:20;;;;;;;20.48;14.02;;;6.70;81.80;;;;;;4925057;28;90183;-89
2021/10/25 01:39:48;;;;;;;19.25;13.80;;;6.70;81.90;;;;;;4940882;28;90698;-89
2021/10/25 01:42:15;;;;;;;16.38;12.73;;;6.70;81.90;;;;;;4924368;28;91020;-89
2021/10/25 01:44:43;;;;;;;17.50;13.93;;;6.60;82.30;;;;;;4924565;28;91818;-89
2021/10/25 01:47:10;;;;;;;22.75;15.02;;;6.60;82.90;;;;;;4943602;28;89151;-90
2021/10/25 01:49:38;;;;;;;20.92;14.30;;;6.70;82.80;;;;;;4932951;28;90285;-89
2021/10/25 01:52:07;;;;;;;19.85;15.55;;;6.60;82.90;;;;;;4924366;28;92509;-89
2021/10/25 01:54:44;;;;;;;21.73;14.63;;;6.60;83.10;;;;;;4918764;28;91753;-89
2021/10/25 01:57:11;;;;;;;17.38;14.13;;;6.60;82.70;;;;;;4902682;28;91582;-90
2021/10/25 01:59:39;;;;;;;20.92;13.98;;;6.60;83.70;;;;;;4869893;28;89229;-89
2021/10/25 02:02:07;;;;;;;19.63;13.48;;;6.60;83.30;;;;;;4886353;28;90610;-89
2021/10/25 02:04:35;;;;;;;24.77;14.13;;;6.60;82.90;;;;;;4882282;28;92101;-89
2021/10/25 02:07:02;;;;;;;22.10;15.82;;;6.60;83.30;;;;;;4901410;28;90678;-89
2021/10/25 02:09:29;;;;;;;20.10;14.32;;;6.60;82.80;;;;;;4901610;28;89191;-89
2021/10/25 02:11:57;;;;;;;19.63;13.55;;;6.60;83.00;;;;;;4918078;28;88884;-89
2021/10/25 02:14:25;;;;;;;18.10;13.75;;;6.60;83.20;;;;;;4917092;28;91477;-89
2021/10/25 02:16:52;;;;;;;22.40;14.55;;;6.60;83.40;;;;;;4885698;28;90419;-89
2021/10/25 02:19:19;;;;;;;19.52;14.98;;;6.60;83.20;;;;;;4902144;28;90400;-89
2021/10/25 02:21:58;;;;;;;20.95;14.07;;;6.60;82.90;;;;;;4916435;28;91214;-89
2021/10/25 02:24:25;;;;;;;20.48;15.30;;;6.50;82.80;;;;;;4900771;28;90604;-89
2021/10/25 02:26:53;;;;;;;17.42;13.70;;;6.50;82.50;;;;;;4921265;28;90433;-89
2021/10/25 02:29:21;;;;;;;21.88;14.70;;;6.50;82.20;;;;;;4888427;28;90387;-89
2021/10/25 02:31:48;;;;;;;19.35;14.73;;;6.50;82.30;;;;;;4888907;28;91512;-89
2021/10/25 02:34:16;;;;;;;19.60;14.20;;;6.50;82.30;;;;;;4904907;28;89482;-89
2021/10/25 02:36:44;;;;;;;22.42;15.63;;;6.50;82.40;;;;;;4920467;28;91738;-90
2021/10/25 02:39:18;;;;;;;20.38;15.05;;;6.40;82.50;;;;;;4900599;28;90630;-90
2021/10/25 02:41:47;;;;;;;17.55;13.82;;;6.40;82.60;;;;;;4905007;28;92101;-90
2021/10/25 02:44:17;;;;;;;21.63;15.32;;;6.40;83.20;;;;;;4905223;28;90483;-90
2021/10/25 02:46:44;;;;;;;18.50;14.93;;;6.30;82.80;;;;;;4905251;28;91331;-90
2021/10/25 02:49:12;;;;;;;19.70;13.48;;;6.30;82.40;;;;;;4921020;28;89570;-89
2021/10/25 02:51:39;;;;;;;17.58;14.30;;;6.30;82.50;;;;;;4904345;28;91112;-89
2021/10/25 02:54:07;;;;;;;20.48;14.48;;;6.30;82.90;;;;;;4904496;28;91678;-89
2021/10/25 02:56:44;;;;;;;22.05;15.15;;;6.20;82.90;;;;;;4911424;28;89870;-89
2021/10/25 02:59:12;;;;;;;19.13;14.98;;;6.20;82.90;;;;;;4924171;28;90868;-89
2021/10/25 03:01:40;;;;;;;20.63;15.38;;;6.20;83.00;;;;;;4908523;28;89201;-89
2021/10/25 03:04:11;;;;;;;17.73;13.80;;;6.20;82.70;;;;;;4933680;28;92126;-89
2021/10/25 03:06:38;;;;;;;21.48;14.80;;;6.20;83.00;;;;;;4975314;28;91266;-89
2021/10/25 03:09:08;;;;;;;24.80;16.05;;;6.20;82.90;;;;;;4958630;28;90834;-89
2021/10/25 03:11:38;;;;;;;21.20;15.27;;;6.20;82.90;;;;;;4959523;28;91414;-90
2021/10/25 03:14:05;;;;;;;22.25;16.20;;;6.10;83.30;;;;;;4946868;28;91291;-90
2021/10/25 03:16:45;;;;;;;24.02;16.52;;;6.10;83.20;;;;;;4948109;28;91464;-89
2021/10/25 03:19:12;;;;;;;21.38;15.38;;;6.10;82.90;;;;;;4946826;28;88532;-89
2021/10/25 03:21:39;;;;;;;21.73;15.40;;;6.10;82.80;;;;;;4946194;28;90381;-89
2021/10/25 03:24:06;;;;;;;21.50;15.38;;;6.10;82.80;;;;;;4946601;28;91618;-89
2021/10/25 03:26:36;;;;;;;20.92;15.10;;;6.20;82.80;;;;;;4962957;28;91723;-89
2021/10/25 03:29:03;;;;;;;19.50;14.48;;;6.20;82.80;;;;;;4946055;28;90376;-89
2021/10/25 03:31:30;;;;;;;22.55;16.45;;;6.20;83.90;;;;;;4946403;28;92229;-90
2021/10/25 03:33:58;;;;;;;21.20;15.35;;;6.20;83.20;;;;;;4946019;28;92267;-89
2021/10/25 03:36:31;;;;;;;24.27;15.63;;;6.20;83.30;;;;;;4947000;28;91524;-89
2021/10/25 03:38:58;;;;;;;19.42;15.25;;;6.20;84.00;;;;;;4947355;28;88514;-89
2021/10/25 03:41:34;;;;;;;20.27;14.45;;;6.20;83.50;;;;;;4946446;28;90658;-89
2021/10/25 03:44:08;;;;;;;23.13;15.32;;;6.20;83.80;;;;;;4947015;28;90773;-89
2021/10/25 03:46:41;;;;;;;20.17;15.27;;;6.20;84.20;;;;;;4946599;28;91665;-90
2021/10/25 03:51:41;;;;;;;20.80;15.32;;;6.20;83.80;;;;;;4978534;28;90757;-89
2021/10/25 03:57:42;;;;;;;22.05;15.55;;;6.20;83.60;;;;;;4961933;28;91588;-90
2021/10/25 04:02:32;;;;;;;25.17;15.73;;;6.20;83.70;;;;;;4946149;28;90526;-91
2021/10/25 04:27:47;;;;;;;21.40;15.77;;;6.20;84.50;;;;;;4912189;28;90766;-90
2021/10/25 04:30:16;;;;;;;22.70;15.65;;;6.30;84.20;;;;;;4908847;28;91711;-90
2021/10/25 04:32:43;;;;;;;20.83;15.70;;;6.40;84.20;;;;;;4939644;28;90383;-91
2021/10/25 04:35:27;;;;;;;21.53;15.40;;;6.40;84.00;;;;;;4925507;28;91536;-91
2021/10/25 04:38:23;;;;;;;23.40;14.60;;;6.50;84.00;;;;;;4935370;28;90797;-91
2021/10/25 04:40:51;;;;;;;19.95;15.23;;;6.60;83.90;;;;;;4923007;28;91472;-90
2021/10/25 04:43:18;;;;;;;19.45;14.70;;;6.60;83.70;;;;;;4907099;28;91105;-91
2021/10/25 04:45:46;;;;;;;22.95;13.70;;;6.70;84.40;;;;;;4922535;28;91112;-90
2021/10/25 04:48:15;;;;;;;22.52;14.95;;;6.70;83.70;;;;;;4907110;28;92259;-91
2021/10/25 04:50:57;;;;;;;18.40;14.82;;;6.70;83.50;;;;;;4922742;28;91184;-91
2021/10/25 04:53:49;;;;;;;20.13;14.77;;;6.70;84.40;;;;;;4935969;28;89034;-91
2021/10/25 04:56:21;;;;;;;22.35;15.45;;;6.70;84.00;;;;;;4922578;28;91018;-91
2021/10/25 04:58:48;;;;;;;20.15;14.23;;;6.70;84.50;;;;;;4906711;28;91725;-91
2021/10/25 05:06:00;;;;;;;19.70;13.63;;;6.70;83.90;;;;;;4945846;28;88613;-91
2021/10/25 05:08:28;;;;;;;17.20;13.10;;;6.60;84.90;;;;;;4925813;28;90607;-91
2021/10/25 05:10:57;;;;;;;23.83;14.82;;;6.60;84.40;;;;;;4943105;28;91584;-91
2021/10/25 05:13:24;;;;;;;21.05;15.60;;;6.70;84.50;;;;;;4941854;28;91481;-91
2021/10/25 05:15:52;;;;;;;24.10;14.77;;;6.70;84.90;;;;;;4941535;28;90250;-91
2021/10/25 05:18:19;;;;;;;17.60;13.02;;;6.80;84.60;;;;;;4925491;28;92073;-91
2021/10/25 05:20:46;;;;;;;20.23;15.38;;;6.90;83.90;;;;;;4925674;28;91692;-91
2021/10/25 05:23:13;;;;;;;19.35;14.77;;;6.90;84.00;;;;;;4925667;28;90501;-91
2021/10/25 05:25:41;;;;;;;18.48;13.55;;;7.00;84.10;;;;;;4925305;28;90618;-92
2021/10/25 05:28:08;;;;;;;21.67;14.65;;;7.10;83.60;;;;;;4925890;28;90085;-91
2021/10/25 05:30:35;;;;;;;18.45;13.85;;;7.20;83.70;;;;;;4925880;28;89892;-91
2021/10/25 05:33:03;;;;;;;20.10;14.38;;;7.20;83.70;;;;;;4941196;28;90059;-91
2021/10/25 05:35:30;;;;;;;19.85;14.60;;;7.30;83.50;;;;;;4925346;28;90895;-92
2021/10/25 05:38:00;;;;;;;21.05;14.20;;;7.40;83.00;;;;;;4926264;28;88574;-92
2021/10/25 05:40:27;;;;;;;17.70;14.23;;;7.50;82.70;;;;;;4926159;28;92095;-92
2021/10/25 05:42:58;;;;;;;22.63;15.15;;;7.50;82.30;;;;;;4941964;28;91402;-92
2021/10/25 05:45:27;;;;;;;19.38;13.93;;;7.60;82.70;;;;;;4942264;28;89292;-93
2021/10/25 05:48:09;;;;;;;18.27;14.25;;;7.70;83.20;;;;;;4942807;28;88728;-93
2021/10/25 05:50:37;;;;;;;18.90;14.60;;;7.80;82.70;;;;;;4926590;28;91657;-91
2021/10/25 05:53:04;;;;;;;18.50;14.55;;;7.80;82.60;;;;;;4941108;28;91385;-91
2021/10/25 05:55:31;;;;;;;20.60;14.70;;;7.90;81.80;;;;;;4940570;28;90724;-92
2021/10/25 05:57:58;;;;;;;18.27;14.77;;;7.90;82.20;;;;;;4941225;28;91318;-91
2021/10/25 06:00:31;;;;;;;19.13;13.82;;;8.00;81.90;;;;;;4925486;28;91856;-91
2021/10/25 06:03:00;;;;;;;18.38;13.43;;;8.10;81.90;;;;;;4956091;28;88878;-91
2021/10/25 06:05:30;;;;;;;19.58;15.05;;;8.10;81.50;;;;;;4942033;28;90034;-91
2021/10/25 06:07:59;;;;;;;18.23;14.10;;;8.20;81.40;;;;;;4942219;28;91890;-91
2021/10/25 06:10:28;;;;;;;21.05;14.75;;;8.20;81.40;;;;;;4957050;28;91994;-91
2021/10/25 06:12:59;;;;;;;29.67;23.15;;;8.30;81.60;;;;;;4957001;28;91904;-91
2021/10/25 06:15:44;;;;;;;20.42;14.13;;;8.30;81.20;;;;;;4927449;28;90026;-96
2021/10/25 06:18:13;;;;;;;193.73;135.40;;;8.40;81.20;;;;;;4937805;28;91340;-91
2021/10/25 06:20:40;;;;;;;39.85;30.50;;;8.40;81.40;;;;;;4937710;28;94150;-91
2021/10/25 06:23:17;;;;;;;32.78;21.15;;;8.50;81.20;;;;;;4940691;28;93290;-90
2021/10/25 06:25:51;;;;;;;57.92;38.88;;;8.50;81.10;;;;;;4939959;28;90087;-91
2021/10/25 06:28:25;;;;;;;60.20;37.13;;;8.50;80.90;;;;;;4956695;28;91705;-91
2021/10/25 06:31:03;;;;;;;68.25;42.78;;;8.50;81.20;;;;;;4940443;28;91675;-91
2021/10/25 06:34:09;;;;;;;43.15;26.58;;;8.60;81.10;;;;;;4908699;28;88798;-91
2021/10/25 06:36:59;;;;;;;60.85;37.03;;;8.60;81.40;;;;;;4932059;28;88644;-91
2021/10/25 06:39:43;;;;;;;28.10;23.70;;;8.60;81.00;;;;;;4942595;28;91053;-91
2021/10/25 06:42:11;;;;;;;22.35;19.20;;;8.60;80.70;;;;;;4924579;28;91922;-91
2021/10/25 06:44:58;;;;;;;26.38;22.08;;;8.70;81.20;;;;;;4926042;28;91248;-91
2021/10/25 06:47:29;;;;;;;23.15;18.83;;;8.70;81.10;;;;;;4940610;28;89660;-90
2021/10/25 06:50:04;;;;;;;22.17;19.20;;;8.80;81.60;;;;;;4925114;28;91564;-91
2021/10/25 06:52:37;;;;;;;19.80;17.60;;;8.90;81.60;;;;;;4924898;28;92424;-91
2021/10/25 06:55:06;;;;;;;21.67;15.77;;;9.00;80.70;;;;;;4898656;28;91547;-90
2021/10/25 06:57:35;;;;;;;17.98;13.25;;;9.10;80.40;;;;;;4920169;28;90114;-91
2021/10/25 07:00:07;;;;;;;16.30;13.65;;;9.20;80.40;;;;;;4889039;28;92124;-91
2021/10/25 07:02:35;;;;;;;16.33;12.45;;;9.30;80.40;;;;;;4889741;28;92081;-91
2021/10/25 07:05:09;;;;;;;17.08;12.85;;;9.40;79.80;;;;;;4905532;28;90209;-91
2021/10/25 07:07:37;;;;;;;14.60;13.15;;;9.50;79.60;;;;;;4905024;28;90932;-91
2021/10/25 07:10:07;;;;;;;16.10;12.27;;;9.60;79.50;;;;;;4889176;28;90508;-91
2021/10/25 07:12:40;;;;;;;13.70;12.15;;;9.70;79.10;;;;;;4890161;28;92366;-91
2021/10/25 07:15:09;;;;;;;13.98;11.63;;;9.90;78.40;;;;;;4883829;28;91021;-92
2021/10/25 08:09:12;;;;;;;17.88;15.93;;;10.90;76.30;;;;;;4913719;28;91021;-91
2021/10/25 08:11:47;;;;;;;15.05;12.85;;;11.00;76.70;;;;;;4910675;28;90246;-90
2021/10/25 08:14:31;;;;;;;16.45;13.35;;;11.00;76.20;;;;;;4954614;28;88465;-91
2021/10/25 08:17:00;;;;;;;13.73;12.23;;;11.00;76.20;;;;;;4906382;28;91844;-91
2021/10/25 08:19:30;;;;;;;17.63;15.70;;;11.00;76.00;;;;;;4922379;28;91336;-91
2021/10/25 08:22:02;;;;;;;22.33;18.58;;;11.00;76.10;;;;;;4906981;28;90575;-89
2021/10/25 08:24:33;;;;;;;19.65;17.63;;;11.10;76.10;;;;;;4922764;28;90906;-89
2021/10/25 08:27:16;;;;;;;15.80;13.85;;;11.10;76.00;;;;;;4933788;28;92132;-89
2021/10/25 08:29:46;;;;;;;17.35;15.52;;;11.10;76.10;;;;;;4907002;28;91454;-89
2021/10/25 08:36:12;;;;;;;15.77;14.07;;;11.20;76.10;;;;;;4940018;28;88843;-89
2021/10/25 08:41:10;;;;;;;17.55;12.73;;;11.30;76.20;;;;;;4938376;28;91775;-89
2021/10/25 08:43:38;;;;;;;16.90;13.02;;;11.40;76.10;;;;;;4939690;28;89467;-89
2021/10/25 08:46:07;;;;;;;15.95;14.35;;;11.40;75.90;;;;;;4925593;28;91508;-89
2021/10/25 08:48:34;;;;;;;16.17;14.30;;;11.40;76.10;;;;;;4926022;28;91691;-90
2021/10/25 08:51:02;;;;;;;15.18;12.27;;;11.60;75.90;;;;;;4941294;28;91580;-90
2021/10/25 08:53:29;;;;;;;16.10;11.55;;;11.60;76.20;;;;;;4941661;28;90191;-89
2021/10/25 08:55:58;;;;;;;14.20;11.73;;;11.60;76.30;;;;;;4900969;28;91331;-89
2021/10/25 08:58:39;;;;;;;15.52;12.55;;;11.70;76.30;;;;;;4918680;28;92328;-89
2021/10/25 09:01:07;;;;;;;15.07;11.90;;;11.90;76.30;;;;;;4902527;28;91514;-90
2021/10/25 09:04:01;;;;;;;13.75;11.88;;;12.00;76.00;;;;;;4904532;28;90088;-89
2021/10/25 09:06:28;;;;;;;17.30;13.88;;;12.00;76.00;;;;;;4918320;28;90831;-89
2021/10/25 09:09:06;;;;;;;17.98;14.27;;;12.10;76.30;;;;;;4921004;28;92349;-89
2021/10/25 09:11:34;;;;;;;16.90;14.57;;;12.20;75.90;;;;;;4921285;28;91518;-89
2021/10/25 09:14:16;;;;;;;30.67;26.93;;;12.10;76.10;;;;;;4938097;28;90347;-89
2021/10/25 09:17:02;;;;;;;17.02;13.00;;;12.20;76.50;;;;;;4921896;28;91280;-89
2021/10/25 09:19:51;;;;;;;17.90;14.07;;;12.20;76.70;;;;;;4889016;28;92135;-89
2021/10/25 09:22:21;;;;;;;20.20;14.40;;;12.20;76.70;;;;;;4894296;28;91782;-89
2021/10/25 09:24:53;;;;;;;20.17;15.35;;;12.20;77.00;;;;;;4921065;28;90260;-89
2021/10/25 09:27:33;;;;;;;19.85;15.93;;;12.20;77.20;;;;;;4906066;28;91500;-89
2021/10/25 09:30:10;;;;;;;15.75;13.48;;;12.20;77.40;;;;;;4921540;28;91648;-89
2021/10/25 09:32:40;;;;;;;18.17;16.02;;;12.20;77.60;;;;;;4905769;28;91086;-89
2021/10/25 09:35:47;;;;;;;17.73;15.55;;;12.20;77.40;;;;;;4911695;28;89154;-89
2021/10/25 09:38:25;;;;;;;16.80;13.77;;;12.30;77.40;;;;;;4938650;28;89616;-90
2021/10/25 09:49:09;;;;;;;14.73;11.45;;;12.50;76.50;;;;;;4917446;28;91017;-89
2021/10/25 09:51:40;;;;;;;14.80;12.68;;;12.60;76.20;;;;;;4922448;28;91683;-90
2021/10/25 09:54:10;;;;;;;16.25;12.45;;;12.70;76.10;;;;;;4920230;28;91255;-90
2021/10/25 09:56:45;;;;;;;14.60;11.85;;;12.70;76.30;;;;;;4904935;28;90418;-89
2021/10/25 09:59:57;;;;;;;15.75;11.82;;;12.80;75.80;;;;;;4922010;28;88995;-90
2021/10/25 10:02:43;;;;;;;17.67;11.93;;;13.00;75.60;;;;;;4936948;28;89597;-90
2021/10/25 10:05:17;;;;;;;18.88;14.10;;;13.00;75.70;;;;;;4920655;28;90357;-90
2021/10/25 10:07:47;;;;;;;11.85;10.30;;;13.00;75.30;;;;;;4920828;28;90856;-89
2021/10/25 10:10:21;;;;;;;;;;;13.10;75.30;;;;;;4922860;28;91556;-90
2021/10/25 10:12:54;;;;;;;13.15;9.75;;;13.10;75.10;;;;;;4919562;28;89316;-90
2021/10/25 10:15:28;;;;;;;12.23;9.68;;;13.10;74.90;;;;;;4913353;28;88077;-89
2021/10/25 10:18:26;;;;;;;14.75;10.35;;;13.10;74.50;;;;;;4921243;28;90730;-90
2021/10/25 10:21:17;;;;;;;13.77;9.70;;;13.20;74.50;;;;;;4924087;28;90065;-89
2021/10/25 10:24:00;;;;;;;12.20;8.97;;;13.10;74.70;;;;;;4924913;28;90779;-89
2021/10/25 10:26:32;;;;;;;13.93;10.18;;;13.10;74.50;;;;;;4923867;28;88017;-89
2021/10/25 10:29:13;;;;;;;43.90;29.98;;;13.10;74.40;;;;;;4889377;28;89889;-90
2021/10/25 10:32:03;;;;;;;77.03;37.65;;;13.10;74.20;;;;;;4919749;28;91248;-90
2021/10/25 10:35:05;;;;;;;80.93;44.60;;;13.10;74.20;;;;;;4868776;28;89051;-89
2021/10/25 10:38:09;;;;;;;14.27;12.63;;;13.10;74.20;;;;;;4921733;28;88935;-90
2021/10/25 10:40:52;;;;;;;;;;;13.10;74.30;;;;;;4891790;28;90600;-90
2021/10/25 10:43:26;;;;;;;10.82;9.55;;;13.00;74.60;;;;;;4891522;28;88638;-90
2021/10/25 10:46:18;;;;;;;15.02;13.43;;;13.00;75.00;;;;;;4905264;28;91259;-90
2021/10/25 10:49:00;;;;;;;17.35;15.57;;;13.10;75.80;;;;;;4906695;28;88470;-90
2021/10/25 10:51:32;;;;;;;13.90;12.15;;;13.10;75.40;;;;;;4905189;28;90601;-90
2021/10/25 10:54:22;;;;;;;15.43;13.82;;;13.00;75.80;;;;;;4918126;28;91304;-89
2021/10/25 10:57:05;;;;;;;13.00;11.70;;;13.00;75.90;;;;;;4921238;28;88477;-89
2021/10/25 10:59:38;;;;;;;11.95;10.57;;;13.00;76.40;;;;;;4923282;28;90686;-90
2021/10/25 11:02:05;;;;;;;14.30;11.52;;;12.90;76.80;;;;;;4924663;28;88397;-90
2021/10/25 11:04:33;;;;;;;12.10;10.85;;;12.90;77.10;;;;;;4903614;28;90926;-89
2021/10/25 11:07:03;;;;;;;13.70;11.70;;;13.00;77.30;;;;;;4919476;28;92376;-89
2021/10/25 11:09:33;;;;;;;17.23;14.70;;;12.90;77.40;;;;;;4920950;28;90490;-89
2021/10/25 11:12:20;;;;;;;13.60;12.20;;;12.90;77.60;;;;;;4925134;28;89467;-89
2021/10/25 11:14:48;;;;;;;13.68;12.27;;;12.90;77.90;;;;;;4907174;28;92582;-89
2021/10/25 11:17:19;;;;;;;13.90;12.10;;;12.80;78.20;;;;;;4907314;28;92545;-90
2021/10/25 11:19:51;;;;;;;12.77;10.80;;;12.80;78.40;;;;;;4923982;28;91997;-89
2021/10/25 11:22:47;;;;;;;12.70;11.40;;;12.80;78.40;;;;;;4906258;28;90347;-89
2021/10/25 11:25:15;;;;;;;16.20;12.88;;;12.80;78.90;;;;;;4930489;28;91797;-89
2021/10/25 11:27:43;;;;;;;14.05;12.23;;;12.70;79.00;;;;;;4919423;28;91993;-89
2021/10/25 11:30:19;;;;;;;16.08;13.30;;;12.70;79.00;;;;;;4904066;28;89199;-89
2021/10/25 11:32:47;;;;;;;17.17;13.43;;;12.70;79.20;;;;;;4921273;28;90331;-89
2021/10/25 11:35:18;;;;;;;14.30;12.00;;;12.60;79.20;;;;;;4922937;28;91230;-91
2021/10/25 11:37:51;;;;;;;14.40;12.02;;;12.60;79.40;;;;;;4940511;28;89864;-89
2021/10/25 11:40:23;;;;;;;18.30;13.32;;;12.60;79.60;;;;;;4920147;28;89237;-88
2021/10/25 11:42:50;;;;;;;16.55;12.93;;;12.60;79.70;;;;;;4921991;28;90883;-89
2021/10/25 11:45:25;;;;;;;18.10;14.35;;;12.60;79.60;;;;;;4919453;28;91444;-89
2021/10/25 11:47:53;;;;;;;18.70;13.90;;;12.60;79.60;;;;;;4903256;28;92138;-89
2021/10/25 11:50:25;;;;;;;16.00;13.10;;;12.60;79.40;;;;;;4920965;28;89069;-89
2021/10/25 11:52:59;;;;;;;19.17;13.68;;;12.70;79.50;;;;;;4919477;28;90856;-89
2021/10/25 11:55:30;;;;;;;18.42;14.45;;;12.70;79.40;;;;;;4933954;28;89044;-89
2021/10/25 11:58:04;;;;;;;15.25;13.02;;;12.80;79.10;;;;;;4922175;28;92277;-89
2021/10/25 12:00:39;;;;;;;15.80;13.30;;;12.90;78.80;;;;;;4939020;28;89101;-89
2021/10/25 12:03:27;;;;;;;13.97;10.90;;;12.90;78.70;;;;;;4922477;28;90798;-89
2021/10/25 12:06:00;;;;;;;14.88;12.57;;;13.00;78.30;;;;;;4894255;28;91521;-88
2021/10/25 12:08:27;;;;;;;14.63;12.13;;;13.10;78.10;;;;;;4903439;28;93002;-89
2021/10/25 12:10:56;;;;;;;12.73;11.43;;;13.10;78.10;;;;;;4903537;28;88592;-89
2021/10/25 12:13:23;;;;;;;14.50;11.65;;;13.20;77.80;;;;;;4909389;28;90862;-88
2021/10/25 12:15:59;;;;;;;14.43;11.68;;;13.30;77.60;;;;;;4902601;28;89438;-89
2021/10/25 12:18:26;;;;;;;13.27;11.65;;;13.40;77.40;;;;;;4903434;28;89373;-89
2021/10/25 12:20:55;;;;;;;13.38;11.15;;;13.50;77.20;;;;;;4920472;28;89102;-89
2021/10/25 12:23:28;;;;;;;16.20;11.90;;;13.50;76.70;;;;;;4920229;28;88485;-89
2021/10/25 12:25:55;;;;;;;12.45;10.75;;;13.60;76.50;;;;;;4923750;28;89158;-89
2021/10/25 12:28:24;;;;;;;12.65;10.68;;;13.70;76.20;;;;;;4936449;28;89638;-89
2021/10/25 12:31:08;;;;;;;14.02;11.10;;;13.70;76.20;;;;;;4905997;28;91167;-89
2021/10/25 12:33:37;;;;;;;14.65;11.23;;;13.80;75.90;;;;;;4922059;28;90658;-89
2021/10/25 12:36:17;;;;;;;12.43;11.05;;;13.70;75.90;;;;;;4903090;28;89171;-89
2021/10/25 12:38:49;;;;;;;13.25;10.88;;;13.80;75.70;;;;;;4909679;28;89522;-89
2021/10/25 12:41:17;;;;;;;16.52;11.02;;;13.70;75.50;;;;;;4921783;28;89073;-90
2021/10/25 12:43:47;;;;;;;14.80;11.38;;;13.70;75.40;;;;;;4921662;28;90199;-89
2021/10/25 12:46:23;;;;;;;14.80;11.30;;;13.70;75.20;;;;;;4920713;28;88565;-89
2021/10/25 12:48:53;;;;;;;13.98;10.90;;;13.70;75.20;;;;;;4936589;28;92298;-89
2021/10/25 12:51:23;;;;;;;12.05;10.55;;;13.70;75.30;;;;;;4915135;28;91148;-89
2021/10/25 12:53:51;;;;;;;12.68;10.43;;;13.70;75.40;;;;;;4939042;28;88333;-89
2021/10/25 12:56:28;;;;;;;14.85;11.18;;;13.70;75.40;;;;;;4939575;28;88913;-89
2021/10/25 12:59:15;;;;;;;13.20;10.20;;;13.80;75.20;;;;;;4922044;28;92005;-89
2021/10/25 13:01:57;;;;;;;16.88;10.35;;;13.90;75.10;;;;;;4921615;28;91278;-89
2021/10/25 13:04:26;;;;;;;14.20;10.98;;;13.90;75.30;;;;;;4921660;28;90639;-89
2021/10/25 13:06:54;;;;;;;14.95;10.20;;;13.80;75.10;;;;;;4905722;28;92412;-89
2021/10/25 13:09:21;;;;;;;12.82;10.57;;;13.80;75.20;;;;;;4921634;28;91704;-89
2021/10/25 13:11:48;;;;;;;13.68;11.00;;;13.90;75.30;;;;;;4939223;28;88868;-89
2021/10/25 13:14:15;;;;;;;14.73;11.55;;;14.00;75.00;;;;;;4893501;28;90656;-90
2021/10/25 13:16:48;;;;;;;12.13;10.43;;;14.10;74.80;;;;;;4887197;28;89064;-89
2021/10/25 13:19:17;;;;;;;13.18;10.63;;;14.10;74.50;;;;;;4912432;28;92471;-89
2021/10/25 13:21:46;;;;;;;16.05;11.98;;;14.30;74.30;;;;;;4921557;28;91884;-89
2021/10/25 13:24:13;;;;;;;12.82;11.45;;;14.20;74.00;;;;;;4937315;28;90668;-89
2021/10/25 13:26:43;;;;;;;14.02;11.68;;;14.30;73.80;;;;;;4924097;28;89034;-89
2021/10/25 13:29:11;;;;;;;14.70;11.38;;;14.30;73.60;;;;;;4919678;28;89316;-89
2021/10/25 13:31:38;;;;;;;14.63;11.65;;;14.40;73.70;;;;;;4920524;28;99055;-89
2021/10/25 13:34:05;;;;;;;15.73;12.75;;;14.40;73.80;;;;;;4937103;28;90648;-89
2021/10/25 13:36:32;;;;;;;14.00;12.10;;;14.40;73.70;;;;;;4921187;28;90015;-89
2021/10/25 13:39:11;;;;;;;13.55;11.95;;;14.40;73.70;;;;;;4937817;28;89663;-89
2021/10/25 13:41:40;;;;;;;13.88;11.63;;;14.50;73.80;;;;;;4938963;28;89173;-89
2021/10/25 13:44:07;;;;;;;15.30;12.32;;;14.40;73.60;;;;;;4922112;28;90171;-89
2021/10/25 13:46:34;;;;;;;12.52;11.10;;;14.40;73.50;;;;;;4920950;28;91312;-89
2021/10/25 13:49:04;;;;;;;14.52;11.68;;;14.50;73.40;;;;;;4938441;28;88769;-89
2021/10/25 13:51:31;;;;;;;13.15;11.18;;;14.50;73.40;;;;;;4938340;28;89377;-89
2021/10/25 13:53:58;;;;;;;17.70;12.07;;;14.50;73.20;;;;;;4937118;28;93592;-90
2021/10/25 13:56:25;;;;;;;12.05;10.52;;;14.50;73.20;;;;;;4920952;28;88875;-89
2021/10/25 13:58:54;;;;;;;12.88;10.43;;;14.50;73.20;;;;;;4905451;28;89441;-89
2021/10/25 14:01:21;;;;;;;12.50;11.10;;;14.60;73.30;;;;;;4938549;28;89228;-89
2021/10/25 14:03:50;;;;;;;13.90;11.15;;;14.50;73.20;;;;;;4924437;28;88939;-89
2021/10/25 14:06:23;;;;;;;12.77;11.52;;;14.60;73.10;;;;;;4938476;28;88806;-89
2021/10/25 14:08:53;;;;;;;13.32;10.20;;;14.70;73.10;;;;;;4905463;28;90572;-89
2021/10/25 14:11:23;;;;;;;12.00;10.27;;;14.60;73.00;;;;;;4937267;28;88842;-89
2021/10/25 14:14:05;;;;;;;10.73;9.63;;;14.50;73.00;;;;;;4920460;28;90624;-89
2021/10/25 14:16:39;;;;;;;12.85;10.40;;;14.60;73.10;;;;;;4906693;28;91379;-89
2021/10/25 14:19:07;;;;;;;12.63;9.80;;;14.60;73.80;;;;;;4900155;28;92327;-89
2021/10/25 14:21:36;;;;;;;14.15;11.07;;;14.60;73.10;;;;;;4922295;28;88986;-89
2021/10/25 14:24:05;;;;;;;13.45;10.70;;;14.60;73.00;;;;;;4924130;28;90948;-89
2021/10/25 14:26:32;;;;;;;12.20;10.77;;;14.60;73.10;;;;;;4956257;28;91694;-89
2021/10/25 14:29:00;;;;;;;12.23;11.02;;;14.60;73.40;;;;;;4919556;28;91828;-89
2021/10/25 14:31:27;;;;;;;12.43;10.60;;;14.50;73.50;;;;;;4902676;28;88866;-89
2021/10/25 14:33:55;;;;;;;13.23;11.02;;;14.40;73.60;;;;;;4919785;28;90822;-90
2021/10/25 14:36:23;;;;;;;11.85;10.13;;;14.40;73.80;;;;;;4922024;28;88994;-90
2021/10/25 14:44:22;;;;;;;12.60;11.25;;;14.30;74.40;;;;;;4922944;28;88842;-90
2021/10/25 14:54:48;;;;;;;13.10;10.50;;;14.30;74.90;;;;;;4925506;28;91030;-90
2021/10/25 14:57:19;;;;;;;11.13;10.02;;;14.30;74.20;;;;;;4955648;28;88964;-91
2021/10/25 14:59:48;;;;;;;11.77;10.43;;;14.30;74.40;;;;;;4940450;28;89251;-90
2021/10/25 15:02:16;;;;;;;13.77;12.15;;;14.30;74.60;;;;;;4939998;28;95645;-90